Time;durP1;ratioP1;P1;durP2;ratioP2;P2;SDS_P1;SDS_P2;PMS_P1;PMS_P2;Temp;Humidity;BMP_temperature;BMP_pressure;BME280_temperature;BME280_humidity;BME280_pressure;Samples;Min_cycle;Max_cycle;Signal;HPM_P1;HPM_P2
2021/11/14 00:00:55;;;;;;;127.82;43.22;;;12.50;99.90;;;;;;5048613;28;20385;-80
2021/11/14 00:03:22;;;;;;;125.75;43.00;;;12.50;99.90;;;;;;5049717;28;20032;-80
2021/11/14 00:05:48;;;;;;;128.57;44.05;;;12.50;99.90;;;;;;5050928;28;20017;-80
2021/11/14 00:08:18;;;;;;;145.93;45.63;;;12.50;99.90;;;;;;5052745;28;20021;-80
2021/11/14 00:10:50;;;;;;;133.32;44.55;;;12.60;99.90;;;;;;5054316;28;20029;-80
2021/11/14 00:13:16;;;;;;;432.00;70.32;;;12.60;99.90;;;;;;5048994;28;20033;-80
2021/11/14 00:15:42;;;;;;;165.18;49.35;;;12.60;99.90;;;;;;5048022;28;20493;-80
2021/11/14 00:18:09;;;;;;;138.50;45.15;;;12.50;99.90;;;;;;5052489;28;20139;-80
2021/11/14 00:20:36;;;;;;;126.07;43.83;;;12.50;99.90;;;;;;5051355;28;20386;-80
2021/11/14 00:23:03;;;;;;;124.47;46.22;;;12.60;99.90;;;;;;5067526;28;20043;-80
2021/11/14 00:25:30;;;;;;;122.55;45.88;;;12.60;99.90;;;;;;5058819;28;20016;-80
2021/11/14 00:27:55;;;;;;;127.20;43.25;;;12.60;99.90;;;;;;5061499;28;20036;-80
2021/11/14 00:30:21;;;;;;;125.28;44.20;;;12.60;99.90;;;;;;5064896;28;20036;-80
2021/11/14 00:32:51;;;;;;;129.25;43.58;;;12.60;99.90;;;;;;5052517;28;20545;-80
2021/11/14 00:35:17;;;;;;;122.32;41.83;;;12.50;99.90;;;;;;5068951;28;20075;-80
2021/11/14 00:37:42;;;;;;;150.15;43.67;;;12.50;99.90;;;;;;5062308;28;20477;-80
2021/11/14 00:40:12;;;;;;;129.30;40.92;;;12.40;99.90;;;;;;5058229;28;20023;-80
2021/11/14 00:42:38;;;;;;;129.48;40.55;;;12.30;99.90;;;;;;5059241;28;20068;-80
2021/11/14 00:45:05;;;;;;;270.42;52.42;;;12.40;99.90;;;;;;5069976;28;20032;-79
2021/11/14 00:47:31;;;;;;;118.60;41.72;;;12.40;99.90;;;;;;5057168;28;20025;-80
2021/11/14 00:49:56;;;;;;;116.45;43.13;;;12.30;99.90;;;;;;5064202;28;20075;-80
2021/11/14 00:52:22;;;;;;;105.40;39.50;;;12.30;99.90;;;;;;5063142;28;20483;-80
2021/11/14 00:54:48;;;;;;;122.20;41.17;;;12.30;99.90;;;;;;5047722;28;20032;-80
2021/11/14 00:57:14;;;;;;;114.47;38.13;;;12.30;99.90;;;;;;5072049;28;20376;-80
2021/11/14 00:59:40;;;;;;;108.22;38.22;;;12.30;99.90;;;;;;5064601;28;20044;-81
2021/11/14 01:02:06;;;;;;;105.88;37.85;;;12.30;99.90;;;;;;5063674;28;20028;-80
2021/11/14 01:04:32;;;;;;;98.45;35.88;;;12.30;99.90;;;;;;5059347;28;20047;-80
2021/11/14 01:06:57;;;;;;;105.93;37.58;;;12.30;99.90;;;;;;5056254;28;20025;-80
2021/11/14 01:09:23;;;;;;;97.00;37.53;;;12.30;99.90;;;;;;5044880;28;20056;-80
2021/11/14 01:11:49;;;;;;;104.30;37.50;;;12.30;99.90;;;;;;5059589;28;20017;-80
2021/11/14 01:14:15;;;;;;;110.45;37.95;;;12.30;99.90;;;;;;5048425;28;20036;-80
2021/11/14 01:16:41;;;;;;;124.55;41.03;;;12.30;99.90;;;;;;5065339;28;20024;-80
2021/11/14 01:19:06;;;;;;;117.50;40.22;;;12.40;99.90;;;;;;5069613;28;20082;-80
2021/11/14 01:21:32;;;;;;;151.95;42.75;;;12.30;99.90;;;;;;5056511;28;20427;-80
2021/11/14 01:24:00;;;;;;;129.98;40.90;;;12.30;99.90;;;;;;5064085;28;20428;-80
2021/11/14 01:26:27;;;;;;;113.80;38.72;;;12.30;99.90;;;;;;5065646;28;20031;-80
2021/11/14 01:28:53;;;;;;;111.72;40.22;;;12.30;99.90;;;;;;5057439;28;20032;-80
2021/11/14 01:31:19;;;;;;;123.18;44.40;;;12.30;99.90;;;;;;5068997;28;20043;-80
2021/11/14 01:33:45;;;;;;;107.53;38.10;;;12.30;99.90;;;;;;5058013;28;20028;-80
2021/11/14 01:36:11;;;;;;;122.63;41.85;;;12.30;99.90;;;;;;5056751;28;20108;-80
2021/11/14 01:38:37;;;;;;;121.57;42.92;;;12.30;99.90;;;;;;5059205;28;20439;-80
2021/11/14 01:41:08;;;;;;;138.00;47.97;;;12.30;99.90;;;;;;5056290;28;20032;-79
2021/11/14 01:43:48;;;;;;;118.63;41.40;;;12.30;99.90;;;;;;5066246;28;20110;-80
2021/11/14 01:46:15;;;;;;;123.22;42.10;;;12.30;99.90;;;;;;5063279;28;20016;-79
2021/11/14 01:48:41;;;;;;;115.85;41.42;;;12.30;99.90;;;;;;5058717;28;20032;-79
2021/11/14 01:51:08;;;;;;;137.45;43.92;;;12.30;99.90;;;;;;5040425;28;20033;-80
2021/11/14 01:53:37;;;;;;;118.88;44.08;;;12.30;99.90;;;;;;5068095;28;20025;-80
2021/11/14 01:56:05;;;;;;;128.60;45.28;;;12.30;99.90;;;;;;5061084;28;20103;-80
2021/11/14 01:58:30;;;;;;;120.20;41.13;;;12.30;99.90;;;;;;5071939;28;20037;-80
2021/11/14 02:01:12;;;;;;;109.53;41.28;;;12.30;99.90;;;;;;5050270;28;20092;-79
2021/11/14 02:03:40;;;;;;;108.90;39.72;;;12.30;99.90;;;;;;5043250;28;20024;-79
2021/11/14 02:06:07;;;;;;;122.10;39.15;;;12.20;99.90;;;;;;5063252;28;20377;-79
2021/11/14 02:08:34;;;;;;;103.40;38.45;;;12.20;99.90;;;;;;5056161;28;20524;-80
2021/11/14 02:11:00;;;;;;;111.43;40.72;;;12.20;99.90;;;;;;5069200;28;20028;-78
2021/11/14 02:13:26;;;;;;;108.97;38.67;;;12.20;99.90;;;;;;5056055;28;20023;-79
2021/11/14 02:15:52;;;;;;;143.68;43.00;;;12.20;99.90;;;;;;5065763;28;20083;-79
2021/11/14 02:18:19;;;;;;;121.72;41.33;;;12.20;99.90;;;;;;5063287;28;20035;-79
2021/11/14 02:20:47;;;;;;;108.72;41.03;;;12.10;99.90;;;;;;5046589;28;20021;-80
2021/11/14 02:23:16;;;;;;;112.47;41.38;;;12.20;99.90;;;;;;5049467;28;20049;-81
2021/11/14 02:25:46;;;;;;;110.20;41.92;;;12.20;99.90;;;;;;5057130;28;20096;-79
2021/11/14 02:28:12;;;;;;;117.85;41.40;;;12.20;99.90;;;;;;5060790;28;20025;-79
2021/11/14 02:30:38;;;;;;;113.10;41.03;;;12.20;99.90;;;;;;5057242;28;20063;-79
2021/11/14 02:33:04;;;;;;;114.25;40.85;;;12.20;99.90;;;;;;5060639;28;20466;-79
2021/11/14 02:35:31;;;;;;;112.03;41.05;;;12.10;99.90;;;;;;5070910;28;20381;-79
2021/11/14 02:37:57;;;;;;;112.05;39.95;;;12.20;99.90;;;;;;5060377;28;20036;-80
2021/11/14 02:40:23;;;;;;;109.47;41.03;;;12.20;99.90;;;;;;5060780;28;20021;-79
2021/11/14 02:42:51;;;;;;;106.78;39.28;;;12.20;99.90;;;;;;5066281;28;20040;-79
2021/11/14 02:45:20;;;;;;;120.70;42.03;;;12.10;99.90;;;;;;5068576;28;20092;-79
2021/11/14 02:47:46;;;;;;;115.32;42.55;;;12.10;99.90;;;;;;5051951;28;20052;-79
2021/11/14 02:50:13;;;;;;;103.85;38.88;;;12.10;99.90;;;;;;5049337;28;20022;-80
2021/11/14 02:52:39;;;;;;;117.00;44.58;;;12.10;99.90;;;;;;5058495;28;20107;-80
2021/11/14 02:55:10;;;;;;;114.45;43.22;;;12.10;99.90;;;;;;5055244;28;20082;-79
2021/11/14 02:57:35;;;;;;;121.60;45.85;;;12.10;99.90;;;;;;5066596;28;20067;-79
2021/11/14 03:00:04;;;;;;;111.35;41.53;;;12.10;99.90;;;;;;5064286;28;20473;-80
2021/11/14 03:02:30;;;;;;;109.40;41.83;;;12.10;99.90;;;;;;5057403;28;20030;-79
2021/11/14 03:04:56;;;;;;;111.22;41.75;;;12.10;99.90;;;;;;5063212;28;20027;-80
2021/11/14 03:07:21;;;;;;;111.55;41.50;;;12.10;99.90;;;;;;5054923;28;20024;-80
2021/11/14 03:09:47;;;;;;;143.52;45.63;;;12.10;99.90;;;;;;5064131;28;20017;-80
2021/11/14 03:12:13;;;;;;;138.50;45.53;;;12.00;99.90;;;;;;5061936;28;20028;-79
2021/11/14 03:14:38;;;;;;;114.38;41.38;;;12.00;99.90;;;;;;5057412;28;20053;-79
2021/11/14 03:17:04;;;;;;;112.85;42.85;;;12.00;99.90;;;;;;5068566;28;20386;-79
2021/11/14 03:19:30;;;;;;;113.68;41.45;;;12.00;99.90;;;;;;5054899;28;20037;-79
2021/11/14 03:21:56;;;;;;;124.20;42.85;;;12.00;99.90;;;;;;5045592;28;20028;-79
2021/11/14 03:24:22;;;;;;;108.03;42.30;;;12.00;99.90;;;;;;5040200;28;20367;-78
2021/11/14 03:26:47;;;;;;;111.90;41.60;;;12.00;99.90;;;;;;5031789;28;20101;-79
2021/11/14 03:29:13;;;;;;;105.80;41.35;;;12.10;99.90;;;;;;5065654;28;20102;-79
2021/11/14 03:31:40;;;;;;;118.30;43.63;;;12.00;99.90;;;;;;5041438;28;20063;-81
2021/11/14 03:34:06;;;;;;;99.47;39.83;;;12.00;99.90;;;;;;5062791;28;20013;-81
2021/11/14 03:36:32;;;;;;;105.45;41.72;;;12.10;99.90;;;;;;5064729;28;20400;-79
2021/11/14 03:39:00;;;;;;;107.10;41.72;;;12.00;99.90;;;;;;5055278;28;20029;-79
2021/11/14 03:41:34;;;;;;;115.72;43.78;;;12.00;99.90;;;;;;5052438;28;20099;-79
2021/11/14 03:47:21;;;;;;;106.65;41.05;;;12.10;99.90;;;;;;5066359;28;20087;-79
2021/11/14 03:49:47;;;;;;;118.50;40.95;;;12.10;99.90;;;;;;5052174;28;20028;-79
2021/11/14 03:52:13;;;;;;;103.80;40.83;;;12.10;99.90;;;;;;5052642;28;20424;-79
2021/11/14 03:54:39;;;;;;;109.95;42.55;;;12.10;99.90;;;;;;5060708;28;20056;-80
2021/11/14 03:57:06;;;;;;;111.32;43.78;;;12.10;99.90;;;;;;5055258;28;20037;-82
2021/11/14 03:59:33;;;;;;;116.22;42.55;;;12.00;99.90;;;;;;5055035;28;20070;-80
2021/11/14 04:01:59;;;;;;;115.15;42.85;;;12.10;99.90;;;;;;5062949;28;20468;-81
2021/11/14 04:04:25;;;;;;;105.85;40.88;;;12.00;99.90;;;;;;5056593;28;20084;-78
2021/11/14 04:06:51;;;;;;;115.60;43.22;;;12.10;99.90;;;;;;5066281;28;20484;-79
2021/11/14 04:09:17;;;;;;;131.43;46.88;;;12.00;99.90;;;;;;5058319;28;20534;-79
2021/11/14 04:11:42;;;;;;;104.60;41.97;;;12.00;99.90;;;;;;5068134;28;20040;-79
2021/11/14 04:14:08;;;;;;;117.85;43.75;;;12.00;99.90;;;;;;5064606;28;20017;-79
2021/11/14 04:16:34;;;;;;;120.70;43.17;;;12.00;99.90;;;;;;5061616;28;20029;-79
2021/11/14 04:19:00;;;;;;;106.82;42.22;;;12.00;99.90;;;;;;5071516;28;20064;-79
2021/11/14 04:21:26;;;;;;;117.55;44.22;;;12.00;99.90;;;;;;5045506;28;20480;-79
2021/11/14 04:23:52;;;;;;;146.68;47.03;;;12.00;99.90;;;;;;5064537;28;20051;-79
2021/11/14 04:26:18;;;;;;;205.63;50.13;;;11.90;99.90;;;;;;5057798;28;20032;-79
2021/11/14 04:28:45;;;;;;;103.75;40.10;;;11.80;99.90;;;;;;5059631;28;20021;-79
2021/11/14 04:31:11;;;;;;;134.20;43.63;;;11.90;99.90;;;;;;5064162;28;20492;-79
2021/11/14 04:33:36;;;;;;;102.97;39.25;;;11.90;99.90;;;;;;5069354;28;20465;-79
2021/11/14 04:36:03;;;;;;;129.27;46.42;;;11.90;99.90;;;;;;5063286;28;20162;-80
2021/11/14 04:38:29;;;;;;;112.78;41.85;;;11.80;99.90;;;;;;5061974;28;20120;-79
2021/11/14 04:40:56;;;;;;;144.68;47.58;;;11.80;99.90;;;;;;5040468;28;20152;-79
2021/11/14 04:43:22;;;;;;;117.10;45.25;;;11.80;99.90;;;;;;5070585;28;20025;-80
2021/11/14 04:45:50;;;;;;;113.70;43.45;;;11.80;99.90;;;;;;5061551;28;20392;-79
2021/11/14 04:48:16;;;;;;;115.50;43.92;;;11.90;99.90;;;;;;5064297;28;20427;-80
2021/11/14 04:50:42;;;;;;;128.10;45.00;;;11.80;99.90;;;;;;5047572;28;20104;-79
2021/11/14 04:53:09;;;;;;;118.78;44.95;;;11.80;99.90;;;;;;5051372;28;20026;-79
2021/11/14 04:55:35;;;;;;;141.27;47.35;;;11.90;99.90;;;;;;5049236;28;20028;-79
2021/11/14 04:58:02;;;;;;;123.07;45.28;;;11.80;99.90;;;;;;5047306;28;20116;-79
2021/11/14 05:00:39;;;;;;;139.80;48.38;;;11.80;99.90;;;;;;5048368;28;20845;-79
2021/11/14 05:03:04;;;;;;;153.32;47.38;;;11.80;99.90;;;;;;5048692;28;20051;-79
2021/11/14 05:05:31;;;;;;;135.85;45.97;;;11.70;99.90;;;;;;5050004;28;20380;-79
2021/11/14 05:07:57;;;;;;;138.75;47.28;;;11.70;99.90;;;;;;5047535;28;20022;-79
2021/11/14 05:10:23;;;;;;;136.15;45.50;;;11.80;99.90;;;;;;5048400;28;20027;-79
2021/11/14 05:12:49;;;;;;;119.13;45.97;;;11.80;99.90;;;;;;5048364;28;20511;-79
2021/11/14 05:15:15;;;;;;;136.95;48.55;;;11.80;99.90;;;;;;5051424;28;20048;-79
2021/11/14 05:17:41;;;;;;;148.93;48.83;;;11.70;99.90;;;;;;5051625;28;20123;-79
2021/11/14 05:20:07;;;;;;;146.80;48.38;;;11.70;99.90;;;;;;5047516;28;20109;-79
2021/11/14 05:22:33;;;;;;;135.60;46.38;;;11.80;99.90;;;;;;5047639;28;20072;-79
2021/11/14 05:24:59;;;;;;;148.98;50.05;;;11.70;99.90;;;;;;5040873;28;20454;-79
2021/11/14 05:27:25;;;;;;;144.00;47.17;;;11.70;99.90;;;;;;5053260;28;20021;-80
2021/11/14 05:29:51;;;;;;;147.00;48.28;;;11.70;99.90;;;;;;5046158;28;20404;-80
2021/11/14 05:32:18;;;;;;;134.60;46.60;;;11.70;99.90;;;;;;5048356;28;20075;-79
2021/11/14 05:34:43;;;;;;;149.25;47.88;;;11.80;99.90;;;;;;5046010;28;20018;-79
2021/11/14 05:37:09;;;;;;;185.10;51.22;;;11.80;99.90;;;;;;5045219;28;20067;-79
2021/11/14 05:39:35;;;;;;;140.40;48.25;;;11.80;99.90;;;;;;5048663;28;20028;-80
2021/11/14 05:42:01;;;;;;;141.07;49.30;;;11.80;99.90;;;;;;5043351;28;20155;-79
2021/11/14 05:44:27;;;;;;;132.82;47.85;;;11.80;99.90;;;;;;5046172;28;20486;-79
2021/11/14 05:46:52;;;;;;;164.48;52.08;;;11.80;99.90;;;;;;5047105;28;20033;-79
2021/11/14 05:49:18;;;;;;;203.60;53.88;;;11.80;99.90;;;;;;5045085;28;20018;-78
2021/11/14 05:51:44;;;;;;;144.40;49.47;;;11.80;99.90;;;;;;5047019;28;20078;-79
2021/11/14 05:54:10;;;;;;;141.07;49.75;;;11.80;99.90;;;;;;5046071;28;20103;-79
2021/11/14 05:56:36;;;;;;;145.38;48.65;;;11.80;99.90;;;;;;5044572;28;20501;-80
2021/11/14 06:02:08;;;;;;;149.98;49.60;;;11.80;99.90;;;;;;5053451;28;20534;-80
2021/11/14 06:07:17;;;;;;;158.43;50.25;;;11.80;99.90;;;;;;5053062;28;20078;-81
2021/11/14 06:09:43;;;;;;;132.45;47.85;;;11.80;99.90;;;;;;5044625;28;20032;-81
2021/11/14 06:12:09;;;;;;;148.02;51.10;;;11.70;99.90;;;;;;5046147;28;20017;-81
2021/11/14 06:14:35;;;;;;;176.98;53.08;;;11.60;99.90;;;;;;5043486;28;20029;-82
2021/11/14 06:17:01;;;;;;;146.52;49.20;;;11.70;99.90;;;;;;5050598;28;20025;-81
2021/11/14 06:19:27;;;;;;;139.63;49.17;;;11.70;99.90;;;;;;5068847;28;20166;-80
2021/11/14 06:21:53;;;;;;;146.05;48.15;;;11.80;99.90;;;;;;5047682;28;20096;-81
2021/11/14 06:24:18;;;;;;;166.43;52.72;;;11.80;99.90;;;;;;5061664;28;20102;-81
2021/11/14 06:26:45;;;;;;;126.45;46.83;;;11.80;99.90;;;;;;5066142;28;20025;-80
2021/11/14 06:29:11;;;;;;;169.30;50.60;;;11.80;99.90;;;;;;5055904;28;20037;-81
2021/11/14 06:31:38;;;;;;;154.90;51.05;;;11.80;99.90;;;;;;5064693;28;20021;-81
2021/11/14 06:34:04;;;;;;;147.70;51.33;;;11.80;99.90;;;;;;5058096;28;20103;-81
2021/11/14 06:36:29;;;;;;;142.35;47.92;;;11.80;99.90;;;;;;5058785;28;20096;-81
2021/11/14 06:38:55;;;;;;;162.82;51.90;;;11.90;99.90;;;;;;5054346;28;20079;-81
2021/11/14 06:41:21;;;;;;;154.85;50.92;;;11.90;99.90;;;;;;5072087;28;20020;-81
2021/11/14 06:43:47;;;;;;;145.15;51.95;;;11.80;99.90;;;;;;5055622;28;20107;-82
2021/11/14 06:46:15;;;;;;;155.30;50.58;;;11.80;99.90;;;;;;5062477;28;20037;-81
2021/11/14 06:48:40;;;;;;;155.40;50.55;;;11.80;99.90;;;;;;5065105;28;20506;-81
2021/11/14 06:51:06;;;;;;;158.43;51.65;;;11.70;99.90;;;;;;5049347;28;20025;-81
2021/11/14 06:53:32;;;;;;;157.68;52.72;;;11.80;99.90;;;;;;5064408;28;20424;-80
2021/11/14 06:55:58;;;;;;;154.13;53.65;;;11.80;99.90;;;;;;5063282;28;20021;-82
2021/11/14 06:58:23;;;;;;;161.27;54.95;;;11.80;99.90;;;;;;5060509;28;20092;-82
2021/11/14 07:00:50;;;;;;;157.25;55.22;;;11.80;99.90;;;;;;5048896;28;20083;-80
2021/11/14 07:03:16;;;;;;;196.63;58.58;;;11.70;99.90;;;;;;5047434;28;20025;-81
2021/11/14 07:05:42;;;;;;;167.70;55.78;;;11.70;99.90;;;;;;5044023;28;20470;-81
2021/11/14 07:08:09;;;;;;;168.80;54.90;;;11.80;99.90;;;;;;5048840;28;20525;-81
2021/11/14 07:10:35;;;;;;;157.93;54.42;;;11.80;99.90;;;;;;5044791;28;20092;-80
2021/11/14 07:13:00;;;;;;;159.18;54.78;;;11.80;99.90;;;;;;5043422;28;20128;-81
2021/11/14 07:15:26;;;;;;;172.68;57.53;;;11.80;99.90;;;;;;5047924;28;20495;-81
2021/11/14 07:17:52;;;;;;;146.95;52.15;;;11.80;99.90;;;;;;5044178;28;20041;-80
2021/11/14 07:20:18;;;;;;;152.55;54.05;;;11.80;99.90;;;;;;5046407;28;20059;-81
2021/11/14 07:22:45;;;;;;;173.32;55.58;;;11.80;99.90;;;;;;5045191;28;20033;-81
2021/11/14 07:25:15;;;;;;;180.80;56.35;;;11.80;99.90;;;;;;5048035;28;20018;-82
2021/11/14 07:27:45;;;;;;;161.75;55.33;;;11.60;99.90;;;;;;5043779;28;20036;-80
2021/11/14 07:30:12;;;;;;;178.73;55.92;;;11.60;99.90;;;;;;5049913;28;20033;-81
2021/11/14 07:32:40;;;;;;;185.35;57.50;;;11.60;99.90;;;;;;5050547;28;20044;-81
2021/11/14 07:35:07;;;;;;;179.98;58.83;;;11.70;99.90;;;;;;5068419;28;20044;-80
2021/11/14 07:37:33;;;;;;;176.50;58.08;;;11.70;99.90;;;;;;5069951;28;20548;-80
2021/11/14 07:39:58;;;;;;;177.90;59.97;;;11.80;99.90;;;;;;5055885;28;20136;-81
2021/11/14 07:42:24;;;;;;;170.57;58.80;;;11.80;99.90;;;;;;5067517;28;20472;-80
2021/11/14 07:44:49;;;;;;;153.20;56.38;;;11.80;99.90;;;;;;5058368;28;20469;-80
2021/11/14 07:47:15;;;;;;;157.95;56.25;;;11.80;99.90;;;;;;5074531;28;20032;-82
2021/11/14 07:49:41;;;;;;;171.75;58.90;;;11.80;99.90;;;;;;5064358;28;20030;-81
2021/11/14 07:52:07;;;;;;;161.27;58.25;;;11.80;99.90;;;;;;5063567;28;20389;-81
2021/11/14 07:54:33;;;;;;;140.30;55.88;;;11.70;99.90;;;;;;5062551;28;20029;-81
2021/11/14 07:56:58;;;;;;;148.98;56.72;;;11.70;99.90;;;;;;5061692;28;20036;-80
2021/11/14 07:59:24;;;;;;;151.80;58.92;;;11.70;99.90;;;;;;5052191;28;20021;-82
2021/11/14 08:01:50;;;;;;;128.65;54.45;;;11.70;99.90;;;;;;5066648;28;20457;-81
2021/11/14 08:04:15;;;;;;;133.05;54.70;;;11.80;99.90;;;;;;5075383;28;20023;-82
2021/11/14 08:06:41;;;;;;;137.43;54.22;;;11.70;99.90;;;;;;5060000;28;20037;-82
2021/11/14 08:09:07;;;;;;;127.90;52.63;;;11.70;99.90;;;;;;5066782;28;20064;-79
2021/11/14 08:11:33;;;;;;;128.57;55.38;;;11.70;99.90;;;;;;5053474;28;20071;-79
2021/11/14 08:13:59;;;;;;;122.38;53.70;;;11.70;99.90;;;;;;5065416;28;20077;-80
2021/11/14 08:16:24;;;;;;;126.50;56.08;;;11.70;99.90;;;;;;5066887;28;20702;-82
2021/11/14 08:18:50;;;;;;;129.20;55.83;;;11.70;99.90;;;;;;5056488;28;20508;-82
2021/11/14 08:21:16;;;;;;;129.00;57.65;;;11.70;99.90;;;;;;5051245;28;20029;-80
2021/11/14 08:23:41;;;;;;;134.18;58.50;;;11.60;99.90;;;;;;5049273;28;20028;-80
2021/11/14 08:26:07;;;;;;;131.63;58.70;;;11.70;99.90;;;;;;5047855;28;20515;-80
2021/11/14 08:28:32;;;;;;;138.63;56.38;;;11.70;99.90;;;;;;5048134;28;20431;-82
2021/11/14 08:30:59;;;;;;;144.40;61.95;;;11.60;99.90;;;;;;5064016;28;20033;-80
2021/11/14 08:33:25;;;;;;;132.25;57.78;;;11.60;99.90;;;;;;5044765;28;20066;-80
2021/11/14 08:35:51;;;;;;;143.55;57.80;;;11.60;99.90;;;;;;5054413;28;20021;-81
2021/11/14 08:38:17;;;;;;;138.20;57.30;;;11.60;99.90;;;;;;5063918;28;20041;-82
2021/11/14 08:40:44;;;;;;;138.85;58.92;;;11.60;99.90;;;;;;5053054;28;20039;-80
2021/11/14 08:43:10;;;;;;;149.05;59.97;;;11.70;99.90;;;;;;5059937;28;20044;-81
2021/11/14 08:45:36;;;;;;;131.98;57.47;;;11.70;99.90;;;;;;5059206;28;20104;-81
2021/11/14 08:48:04;;;;;;;140.65;58.65;;;11.70;99.90;;;;;;5065818;28;20059;-81
2021/11/14 08:50:30;;;;;;;127.43;56.20;;;11.70;99.90;;;;;;5048399;28;20059;-81
2021/11/14 08:52:57;;;;;;;137.27;57.40;;;11.60;99.90;;;;;;5066457;28;20038;-81
2021/11/14 08:55:24;;;;;;;122.75;52.15;;;11.60;99.90;;;;;;5048229;28;20025;-83
2021/11/14 08:57:52;;;;;;;123.93;50.47;;;11.50;99.90;;;;;;5048059;28;20091;-81
2021/11/14 09:00:21;;;;;;;127.78;47.50;;;11.40;99.90;;;;;;5062872;28;20477;-81
2021/11/14 09:02:49;;;;;;;119.05;47.40;;;11.30;99.90;;;;;;5048215;28;20028;-81
2021/11/14 09:05:17;;;;;;;113.43;48.35;;;11.40;99.90;;;;;;5049988;28;20020;-81
2021/11/14 09:07:42;;;;;;;114.03;47.70;;;11.40;99.90;;;;;;5048485;28;20025;-81
2021/11/14 09:10:09;;;;;;;117.82;48.70;;;11.40;99.90;;;;;;5051077;28;20025;-81
2021/11/14 09:12:35;;;;;;;119.47;50.85;;;11.40;99.90;;;;;;5047249;28;20461;-81
2021/11/14 09:15:01;;;;;;;110.80;45.78;;;11.40;99.90;;;;;;5041453;28;20053;-81
2021/11/14 09:17:27;;;;;;;128.18;47.53;;;11.30;99.90;;;;;;5070361;28;20043;-82
2021/11/14 09:19:52;;;;;;;131.73;48.83;;;11.30;99.90;;;;;;5052953;28;20025;-81
2021/11/14 09:22:18;;;;;;;114.03;48.55;;;11.30;99.90;;;;;;5055891;28;20032;-80
2021/11/14 09:24:44;;;;;;;112.28;44.95;;;11.30;99.90;;;;;;5056986;28;20032;-81
2021/11/14 09:27:09;;;;;;;105.18;44.80;;;11.30;99.90;;;;;;5053361;28;20017;-81
2021/11/14 09:29:35;;;;;;;108.00;46.53;;;11.40;99.90;;;;;;5043980;28;20067;-82
2021/11/14 09:32:02;;;;;;;104.82;43.58;;;11.40;99.90;;;;;;5046733;28;20045;-81
2021/11/14 09:34:28;;;;;;;105.43;44.95;;;11.40;99.90;;;;;;5048355;28;20026;-81
2021/11/14 09:36:54;;;;;;;104.40;43.92;;;11.40;99.90;;;;;;5043165;28;20025;-82
2021/11/14 09:39:20;;;;;;;94.85;41.72;;;11.50;99.90;;;;;;5046231;28;20035;-81
2021/11/14 09:41:48;;;;;;;100.28;43.63;;;11.30;99.90;;;;;;5037903;28;20022;-81
2021/11/14 09:44:16;;;;;;;107.97;44.67;;;11.30;99.90;;;;;;5043340;28;20029;-80
2021/11/14 09:46:48;;;;;;;100.30;43.40;;;11.30;99.90;;;;;;5044676;28;20029;-83
2021/11/14 09:49:15;;;;;;;96.22;40.88;;;11.40;99.90;;;;;;5044849;28;20079;-81
2021/11/14 09:51:43;;;;;;;101.07;42.03;;;11.40;99.90;;;;;;5043446;28;20033;-81
2021/11/14 09:54:09;;;;;;;95.70;40.38;;;11.40;99.90;;;;;;5044238;28;20021;-81
2021/11/14 09:56:36;;;;;;;94.93;41.70;;;11.40;99.90;;;;;;5043246;28;20021;-81
2021/11/14 09:59:01;;;;;;;100.53;42.67;;;11.50;99.90;;;;;;5046811;28;20033;-81
2021/11/14 10:01:27;;;;;;;88.95;42.22;;;11.40;99.90;;;;;;5046859;28;20029;-81
2021/11/14 10:03:53;;;;;;;81.40;38.33;;;11.30;99.90;;;;;;5046785;28;20033;-80
2021/11/14 10:06:23;;;;;;;85.05;35.85;;;11.20;99.90;;;;;;5048026;28;20021;-81
2021/11/14 10:08:49;;;;;;;88.63;40.00;;;11.30;99.90;;;;;;5047684;28;20033;-81
2021/11/14 10:11:15;;;;;;;87.35;40.03;;;11.40;99.90;;;;;;5054371;28;20032;-80
2021/11/14 10:13:46;;;;;;;88.53;38.63;;;11.40;99.90;;;;;;5042392;28;20025;-80
2021/11/14 10:16:14;;;;;;;79.10;38.20;;;11.40;99.90;;;;;;5039674;28;20100;-80
2021/11/14 10:18:50;;;;;;;84.65;40.25;;;11.30;99.90;;;;;;5043197;28;20077;-81
2021/11/14 10:21:17;;;;;;;76.47;39.53;;;11.30;99.90;;;;;;5046127;28;20019;-81
2021/11/14 10:23:43;;;;;;;77.60;38.75;;;11.30;99.90;;;;;;5043957;28;20108;-81
2021/11/14 10:26:11;;;;;;;86.13;41.08;;;11.30;99.90;;;;;;5046726;28;20025;-80
2021/11/14 10:28:43;;;;;;;86.20;40.95;;;11.30;99.90;;;;;;5057192;28;20094;-82
2021/11/14 10:31:10;;;;;;;85.47;42.17;;;11.20;99.90;;;;;;5051483;28;20044;-82
2021/11/14 10:33:38;;;;;;;93.82;43.92;;;11.30;99.90;;;;;;5067095;28;20033;-82
2021/11/14 10:36:04;;;;;;;99.00;48.85;;;11.30;99.90;;;;;;5061669;28;20043;-82
2021/11/14 10:38:35;;;;;;;94.45;47.08;;;11.30;99.90;;;;;;5059954;28;20124;-83
2021/11/14 10:41:05;;;;;;;105.65;48.45;;;11.30;99.90;;;;;;5069021;28;20021;-81
2021/11/14 10:43:32;;;;;;;102.25;47.92;;;11.20;99.90;;;;;;5056850;28;20433;-82
2021/11/14 10:45:59;;;;;;;101.63;49.90;;;11.20;99.90;;;;;;5059715;28;20024;-80
2021/11/14 10:48:27;;;;;;;106.03;49.63;;;11.30;99.90;;;;;;5063719;28;20032;-80
2021/11/14 10:50:59;;;;;;;103.32;49.80;;;11.20;99.90;;;;;;5044551;28;20049;-80
2021/11/14 10:53:32;;;;;;;101.78;48.47;;;11.20;99.90;;;;;;5037587;28;20484;-81
2021/11/14 10:56:07;;;;;;;113.60;51.83;;;11.30;99.90;;;;;;5062070;28;20024;-81
2021/11/14 10:58:33;;;;;;;114.07;53.63;;;11.40;99.90;;;;;;5058581;28;20036;-82
2021/11/14 11:01:03;;;;;;;109.07;51.38;;;11.40;99.90;;;;;;5052164;28;20050;-81
2021/11/14 11:03:33;;;;;;;112.80;53.25;;;11.40;99.90;;;;;;5039632;28;20055;-81
2021/11/14 11:06:05;;;;;;;118.53;54.45;;;11.40;99.90;;;;;;5052616;28;20021;-80
2021/11/14 11:08:32;;;;;;;122.60;54.95;;;11.40;99.90;;;;;;5056352;28;20027;-80
2021/11/14 11:11:00;;;;;;;115.55;55.40;;;11.40;99.90;;;;;;5055562;28;20052;-80
2021/11/14 11:13:38;;;;;;;128.35;61.88;;;11.40;99.90;;;;;;5039753;28;20099;-80
2021/11/14 11:16:06;;;;;;;121.93;58.78;;;11.30;99.90;;;;;;5057750;28;20029;-80
2021/11/14 11:18:33;;;;;;;126.75;55.65;;;11.40;99.90;;;;;;5057768;28;20119;-80
2021/11/14 11:21:02;;;;;;;131.75;59.95;;;11.40;99.90;;;;;;5042430;28;20021;-80
2021/11/14 11:23:28;;;;;;;121.43;54.65;;;11.40;99.90;;;;;;5040105;28;20040;-80
2021/11/14 11:26:06;;;;;;;130.20;59.28;;;11.40;99.90;;;;;;5068357;28;20024;-80
2021/11/14 11:28:38;;;;;;;132.35;60.25;;;11.40;99.90;;;;;;5059433;28;20028;-80
2021/11/14 11:31:09;;;;;;;147.73;64.43;;;11.50;99.90;;;;;;5054409;28;20025;-80
2021/11/14 11:33:38;;;;;;;134.63;61.50;;;11.50;99.90;;;;;;5041889;28;20135;-81
2021/11/14 11:36:07;;;;;;;156.18;62.10;;;11.50;99.90;;;;;;5063241;28;20025;-80
2021/11/14 11:38:34;;;;;;;138.98;59.53;;;11.40;99.90;;;;;;5062543;28;20461;-80
2021/11/14 11:41:00;;;;;;;149.93;63.35;;;11.50;99.90;;;;;;5048207;28;20105;-81
2021/11/14 11:43:27;;;;;;;136.05;61.83;;;11.50;99.90;;;;;;5070802;28;20028;-81
2021/11/14 11:46:11;;;;;;;151.35;65.82;;;11.40;99.90;;;;;;5063609;28;20028;-81
2021/11/14 11:48:50;;;;;;;151.65;67.03;;;11.40;99.90;;;;;;5057737;28;20021;-80
2021/11/14 11:51:20;;;;;;;145.18;60.92;;;11.40;99.90;;;;;;5057220;28;20024;-81
2021/11/14 11:54:16;;;;;;;152.27;61.97;;;11.40;99.90;;;;;;5064617;28;20013;-81
2021/11/14 11:56:46;;;;;;;159.88;66.60;;;11.40;99.90;;;;;;5055405;28;20045;-81
2021/11/14 11:59:18;;;;;;;155.52;65.95;;;11.30;99.90;;;;;;5068030;28;20512;-81
2021/11/14 12:01:59;;;;;;;146.20;63.75;;;11.40;99.90;;;;;;5052653;28;20036;-81
2021/11/14 12:04:34;;;;;;;161.25;64.82;;;11.40;99.90;;;;;;5059224;28;20029;-82
2021/11/14 12:07:15;;;;;;;152.75;64.75;;;11.40;99.90;;;;;;5058085;28;20470;-81
2021/11/14 12:10:05;;;;;;;149.60;60.88;;;11.50;99.90;;;;;;5066048;28;20071;-81
2021/11/14 12:12:43;;;;;;;145.75;64.05;;;11.50;99.90;;;;;;5042243;28;20060;-80
2021/11/14 12:15:43;;;;;;;150.75;64.32;;;11.50;99.90;;;;;;5060932;28;20053;-80
2021/11/14 12:18:13;;;;;;;148.55;62.40;;;11.50;99.90;;;;;;5065244;28;20053;-81
2021/11/14 12:20:43;;;;;;;131.13;58.03;;;11.60;99.90;;;;;;5059699;28;20116;-81
2021/11/14 12:23:22;;;;;;;133.05;61.85;;;11.50;99.90;;;;;;5071605;28;20103;-80
2021/11/14 12:25:50;;;;;;;140.10;61.70;;;11.60;99.90;;;;;;5060371;28;20111;-81
2021/11/14 12:28:20;;;;;;;127.40;55.92;;;11.60;99.90;;;;;;5063820;28;20475;-81